createdAt,value
2022-08-30T00:02:06.883Z,19.40
2022-08-30T00:04:35.044Z,19.60
2022-08-30T00:07:03.802Z,19.60
2022-08-30T00:09:32.043Z,19.50
2022-08-30T00:11:58.926Z,19.70
2022-08-30T00:14:27.582Z,20.00
2022-08-30T00:16:54.550Z,20.10
2022-08-30T00:19:21.343Z,19.60
2022-08-30T00:21:48.090Z,19.70
2022-08-30T00:24:15.855Z,19.70
2022-08-30T00:26:42.667Z,19.70
2022-08-30T00:29:09.448Z,19.70
2022-08-30T00:31:36.224Z,19.60
2022-08-30T00:34:03.052Z,19.60
2022-08-30T00:36:29.915Z,19.60
2022-08-30T00:38:56.693Z,19.60
2022-08-30T00:41:23.564Z,19.60
2022-08-30T00:43:50.403Z,19.60
2022-08-30T00:46:17.257Z,19.60
2022-08-30T00:48:48.057Z,19.60
2022-08-30T00:51:16.303Z,19.60
2022-08-30T00:53:50.887Z,19.60
2022-08-30T00:56:18.238Z,19.60
2022-08-30T00:58:49.472Z,19.60
2022-08-30T01:01:16.673Z,19.60
2022-08-30T01:03:44.532Z,19.60
2022-08-30T01:06:12.557Z,19.50
2022-08-30T01:08:39.358Z,19.20
2022-08-30T01:11:06.917Z,18.90
2022-08-30T01:13:35.298Z,20.20
2022-08-30T01:16:03.406Z,19.10
2022-08-30T01:18:32.126Z,19.10
2022-08-30T01:21:14.864Z,19.50
2022-08-30T01:23:44.509Z,19.20
2022-08-30T01:26:13.252Z,19.20
2022-08-30T01:28:45.194Z,19.20
2022-08-30T01:31:12.285Z,19.20
2022-08-30T01:33:39.104Z,19.90
2022-08-30T01:36:11.385Z,17.90
2022-08-30T01:38:46.567Z,19.40
2022-08-30T01:41:20.940Z,19.30
2022-08-30T01:43:49.092Z,19.40
2022-08-30T01:46:17.989Z,19.80
2022-08-30T01:48:51.968Z,19.20
2022-08-30T01:51:24.120Z,19.20
2022-08-30T01:53:50.992Z,19.10
2022-08-30T01:56:18.143Z,19.10
2022-08-30T01:58:45.422Z,19.80
2022-08-30T02:01:15.174Z,19.10
2022-08-30T02:03:43.583Z,19.10
2022-08-30T02:06:15.377Z,19.10
2022-08-30T02:08:43.245Z,19.40
2022-08-30T02:11:11.632Z,19.00
2022-08-30T02:13:40.253Z,19.40
2022-08-30T02:16:13.780Z,19.10
2022-08-30T02:18:41.053Z,19.00
2022-08-30T02:21:08.299Z,18.90
2022-08-30T02:23:35.949Z,18.90
2022-08-30T02:26:04.127Z,19.00
2022-08-30T02:28:31.120Z,19.00
2022-08-30T02:30:58.082Z,19.10
2022-08-30T02:33:25.109Z,19.00
2022-08-30T02:35:52.385Z,19.00
2022-08-30T02:38:20.099Z,19.00
2022-08-30T02:40:47.366Z,20.10
2022-08-30T02:43:14.421Z,19.50
2022-08-30T02:45:41.453Z,19.00
2022-08-30T02:48:08.708Z,19.00
2022-08-30T02:50:39.252Z,19.00
2022-08-30T02:53:06.136Z,19.00
2022-08-30T02:55:33.248Z,19.20
2022-08-30T02:58:00.073Z,19.00
2022-08-30T03:00:26.908Z,19.00
2022-08-30T03:02:53.744Z,18.80
2022-08-30T03:05:20.597Z,19.30
2022-08-30T03:07:47.673Z,18.90
2022-08-30T03:10:15.534Z,19.50
2022-08-30T03:12:42.702Z,18.90
2022-08-30T03:15:14.916Z,18.90
2022-08-30T03:17:42.291Z,19.30
2022-08-30T03:20:09.972Z,18.90
2022-08-30T03:22:36.849Z,18.90
2022-08-30T03:25:04.614Z,19.20
2022-08-30T03:27:31.962Z,18.90
2022-08-30T03:29:58.882Z,19.30
2022-08-30T03:32:25.870Z,18.80
2022-08-30T03:34:52.656Z,18.80
2022-08-30T03:37:23.230Z,19.00
2022-08-30T03:39:53.025Z,18.80
2022-08-30T03:42:20.146Z,19.00
2022-08-30T03:44:48.690Z,18.80
2022-08-30T03:47:15.936Z,19.50
2022-08-30T03:49:42.992Z,18.80
2022-08-30T03:52:10.736Z,19.70
2022-08-30T03:54:38.657Z,19.90
2022-08-30T03:57:06.348Z,18.70
2022-08-30T03:59:33.360Z,18.70
2022-08-30T04:02:00.253Z,18.70
2022-08-30T04:04:27.147Z,18.60
2022-08-30T04:06:53.919Z,18.50
2022-08-30T04:09:20.893Z,18.50
2022-08-30T04:11:47.832Z,18.40
2022-08-30T04:14:14.780Z,18.50
2022-08-30T04:16:41.678Z,18.40
2022-08-30T04:19:08.492Z,18.30
2022-08-30T04:21:36.778Z,18.40
2022-08-30T04:24:09.815Z,18.40
2022-08-30T04:26:36.753Z,18.80
2022-08-30T04:29:03.772Z,18.30
2022-08-30T04:31:31.434Z,18.30
2022-08-30T04:33:58.305Z,18.10
2022-08-30T04:36:25.187Z,18.50
2022-08-30T04:38:51.969Z,18.20
2022-08-30T04:41:20.962Z,18.20
2022-08-30T04:43:51.623Z,18.10
2022-08-30T04:46:19.551Z,18.20
2022-08-30T04:48:46.796Z,18.20
2022-08-30T04:51:16.245Z,18.20
2022-08-30T04:53:43.943Z,18.20
2022-08-30T04:56:16.989Z,18.90
2022-08-30T04:58:45.174Z,18.20
2022-08-30T05:01:23.732Z,18.50
2022-08-30T05:03:52.259Z,18.20
2022-08-30T05:06:20.131Z,18.70
2022-08-30T05:08:47.323Z,18.20
2022-08-30T05:11:15.937Z,18.30
2022-08-30T05:13:44.143Z,18.30
2022-08-30T05:16:11.282Z,18.30
2022-08-30T05:18:38.119Z,18.30
2022-08-30T05:21:04.925Z,18.90
2022-08-30T05:23:31.903Z,18.40
2022-08-30T05:25:58.698Z,18.70
2022-08-30T05:28:26.366Z,18.90
2022-08-30T05:30:53.307Z,19.50
2022-08-30T05:33:20.089Z,18.50
2022-08-30T05:35:46.855Z,19.10
2022-08-30T05:38:13.834Z,18.50
2022-08-30T05:40:42.539Z,18.50
2022-08-30T05:43:11.319Z,18.50
2022-08-30T05:45:38.711Z,18.60
2022-08-30T05:48:05.522Z,19.00
2022-08-30T05:50:34.137Z,18.90
2022-08-30T05:53:02.643Z,18.60
2022-08-30T05:55:29.506Z,18.70
2022-08-30T05:57:56.303Z,18.90
2022-08-30T06:00:23.671Z,19.00
2022-08-30T06:02:54.557Z,19.00
2022-08-30T06:05:21.591Z,19.40
2022-08-30T06:07:49.675Z,19.30
2022-08-30T06:10:16.801Z,20.90
2022-08-30T06:12:44.261Z,19.80
2022-08-30T06:15:11.599Z,19.70
2022-08-30T06:17:39.818Z,19.90
2022-08-30T06:20:07.319Z,20.70
2022-08-30T06:22:35.024Z,20.90
2022-08-30T06:25:02.058Z,20.90
2022-08-30T06:27:28.909Z,21.20
2022-08-30T06:29:55.697Z,21.50
2022-08-30T06:32:22.526Z,21.80
2022-08-30T06:34:49.560Z,22.00
2022-08-30T06:37:29.201Z,22.20
2022-08-30T06:39:57.716Z,22.20
2022-08-30T06:42:30.636Z,22.40
2022-08-30T06:44:58.536Z,22.30
2022-08-30T06:47:25.358Z,22.40
2022-08-30T06:49:52.344Z,22.40
2022-08-30T06:52:19.247Z,22.50
2022-08-30T06:54:46.238Z,22.60
2022-08-30T06:57:13.208Z,22.80
2022-08-30T06:59:40.185Z,22.80
2022-08-30T07:02:08.075Z,22.50
2022-08-30T07:04:35.054Z,22.90
2022-08-30T07:07:01.903Z,22.90
2022-08-30T07:09:28.805Z,23.00
2022-08-30T07:11:55.877Z,23.00
2022-08-30T07:14:23.456Z,23.20
2022-08-30T07:16:51.321Z,23.20
2022-08-30T07:19:20.668Z,23.20
2022-08-30T07:21:49.530Z,23.10
2022-08-30T07:24:17.305Z,23.20
2022-08-30T07:26:49.066Z,23.40
2022-08-30T07:29:17.429Z,23.20
2022-08-30T07:31:44.484Z,23.30
2022-08-30T07:34:11.336Z,23.50
2022-08-30T07:36:38.903Z,23.70
2022-08-30T07:39:07.298Z,23.40
2022-08-30T07:41:38.641Z,24.10
2022-08-30T07:44:07.405Z,24.00
2022-08-30T07:46:35.138Z,23.90
2022-08-30T07:49:04.036Z,23.70
2022-08-30T07:51:32.462Z,23.60
2022-08-30T07:54:00.575Z,24.30
2022-08-30T07:56:27.652Z,23.70
2022-08-30T07:58:54.498Z,23.70
2022-08-30T08:01:22.912Z,23.80
2022-08-30T08:03:51.449Z,23.90
2022-08-30T08:06:20.721Z,24.20
2022-08-30T08:08:47.662Z,24.50
2022-08-30T08:11:28.441Z,24.70
2022-08-30T08:13:58.535Z,25.00
2022-08-30T08:16:27.625Z,25.40
2022-08-30T08:18:55.449Z,25.40
2022-08-30T08:21:23.755Z,25.50
2022-08-30T08:23:51.489Z,25.60
2022-08-30T08:26:19.761Z,25.50
2022-08-30T08:28:47.398Z,25.60
2022-08-30T08:31:25.530Z,25.70
2022-08-30T08:34:02.948Z,25.50
2022-08-30T08:36:31.411Z,25.40
2022-08-30T08:38:58.990Z,25.70
2022-08-30T08:41:40.594Z,26.90
2022-08-30T08:44:45.467Z,26.40
2022-08-30T08:47:20.232Z,26.60
2022-08-30T08:49:51.529Z,26.10
2022-08-30T08:53:00.017Z,25.70
2022-08-30T08:55:29.826Z,25.70
2022-08-30T08:57:57.463Z,26.80
2022-08-30T09:00:24.391Z,27.10
2022-08-30T09:03:04.412Z,27.70
2022-08-30T09:05:40.572Z,27.50
2022-08-30T09:08:11.700Z,27.70
2022-08-30T09:10:50.471Z,27.70
2022-08-30T09:13:19.659Z,27.20
2022-08-30T09:15:54.881Z,27.50
2022-08-30T09:18:45.582Z,28.10
2022-08-30T09:21:14.395Z,28.60
2022-08-30T09:23:51.135Z,28.80
2022-08-30T09:26:29.942Z,29.20
2022-08-30T09:28:56.856Z,29.20
2022-08-30T09:31:28.577Z,29.30
2022-08-30T09:34:07.100Z,29.50
2022-08-30T09:36:53.810Z,29.90
2022-08-30T09:39:27.478Z,30.00
2022-08-30T09:42:09.892Z,29.70
2022-08-30T09:44:39.057Z,28.70
2022-08-30T09:47:22.107Z,28.90
2022-08-30T09:50:02.214Z,29.50
2022-08-30T09:52:36.762Z,28.90
2022-08-30T09:55:17.314Z,28.90
2022-08-30T09:57:56.659Z,29.50
2022-08-30T10:00:29.196Z,29.20
2022-08-30T10:03:36.325Z,29.10
2022-08-30T10:06:34.080Z,28.80
2022-08-30T10:09:12.906Z,28.80
2022-08-30T10:11:54.562Z,28.90
2022-08-30T10:14:39.063Z,29.00
2022-08-30T10:17:27.046Z,29.10
2022-08-30T10:20:17.193Z,28.70
2022-08-30T10:22:58.778Z,29.30
2022-08-30T10:25:56.640Z,30.40
2022-08-30T10:28:33.743Z,31.10
2022-08-30T10:31:06.834Z,31.20
2022-08-30T10:33:42.321Z,31.30
2022-08-30T10:36:15.408Z,31.40
2022-08-30T10:38:50.063Z,30.60
2022-08-30T10:41:31.772Z,29.60
2022-08-30T10:44:05.439Z,29.60
2022-08-30T10:47:01.476Z,30.00
2022-08-30T10:49:35.266Z,30.40
2022-08-30T10:52:20.195Z,31.00
2022-08-30T10:55:13.414Z,31.50
2022-08-30T10:57:42.855Z,31.50
2022-08-30T11:00:14.204Z,31.90
2022-08-30T11:03:00.141Z,32.10
2022-08-30T11:06:20.772Z,32.30
2022-08-30T11:09:11.569Z,32.30
2022-08-30T11:12:18.231Z,32.40
2022-08-30T11:14:46.113Z,32.70
2022-08-30T11:17:47.731Z,32.80
2022-08-30T11:20:41.082Z,33.40
2022-08-30T11:23:32.713Z,34.20
2022-08-30T11:26:13.972Z,34.20
2022-08-30T11:28:47.513Z,34.30
2022-08-30T11:31:23.563Z,35.10
2022-08-30T11:33:57.276Z,35.70
2022-08-30T11:36:37.075Z,36.00
2022-08-30T11:39:05.588Z,36.50
2022-08-30T11:41:42.630Z,36.40
2022-08-30T11:44:22.780Z,36.60
2022-08-30T11:46:55.078Z,36.70
2022-08-30T11:49:25.091Z,35.50
2022-08-30T11:52:27.857Z,34.40
2022-08-30T11:54:58.537Z,35.20
2022-08-30T11:57:36.674Z,36.00
2022-08-30T12:00:25.207Z,34.70
2022-08-30T12:03:07.317Z,34.50
2022-08-30T12:05:45.886Z,35.30
2022-08-30T12:08:21.090Z,35.50
2022-08-30T12:10:56.323Z,36.00
2022-08-30T12:13:37.002Z,35.40
2022-08-30T12:16:06.323Z,34.70
2022-08-30T12:18:49.944Z,34.50
2022-08-30T12:21:22.615Z,34.20
2022-08-30T12:23:52.639Z,33.90
2022-08-30T12:26:31.857Z,33.50
2022-08-30T12:29:15.353Z,33.90
2022-08-30T12:32:05.292Z,34.40
2022-08-30T12:34:37.220Z,34.50
2022-08-30T12:37:08.289Z,34.40
2022-08-30T12:39:40.836Z,34.70
2022-08-30T12:42:26.968Z,34.90
2022-08-30T12:44:57.960Z,34.30
2022-08-30T12:47:47.882Z,33.90
2022-08-30T12:50:19.506Z,33.40
2022-08-30T12:52:55.297Z,33.40
2022-08-30T12:55:26.162Z,33.50
2022-08-30T12:58:11.189Z,32.80
2022-08-30T13:00:44.093Z,32.40
2022-08-30T13:03:39.634Z,32.20
2022-08-30T13:06:07.990Z,32.50
2022-08-30T13:08:45.883Z,33.40
2022-08-30T13:11:25.496Z,33.80
2022-08-30T13:13:58.449Z,34.40
2022-08-30T13:16:39.529Z,35.30
2022-08-30T13:19:58.010Z,34.30
2022-08-30T13:22:28.349Z,33.40
2022-08-30T13:24:55.953Z,32.40
2022-08-30T13:27:23.716Z,32.00
2022-08-30T13:29:51.032Z,31.80
2022-08-30T13:32:18.140Z,31.70
2022-08-30T13:34:46.192Z,32.10
2022-08-30T13:40:13.828Z,32.60
2022-08-30T13:42:42.865Z,31.40
2022-08-30T13:48:00.281Z,31.00
2022-08-30T13:50:28.016Z,31.20
2022-08-30T13:52:54.809Z,31.50
2022-08-30T13:55:21.637Z,32.30
2022-08-30T13:57:56.687Z,33.00
2022-08-30T14:00:25.947Z,32.60
2022-08-30T14:02:57.466Z,32.10
2022-08-30T14:11:12.689Z,30.80
2022-08-30T14:14:14.612Z,30.20
2022-08-30T14:16:28.187Z,29.90
2022-08-30T14:18:56.161Z,29.90
2022-08-30T14:21:25.545Z,29.80
2022-08-30T14:23:54.181Z,29.90
2022-08-30T14:26:24.349Z,30.10
2022-08-30T14:28:53.093Z,30.60
2022-08-30T14:31:20.297Z,30.80
2022-08-30T14:33:47.788Z,30.40
2022-08-30T14:36:15.835Z,29.80
2022-08-30T14:38:44.794Z,29.50
2022-08-30T14:41:11.944Z,29.50
2022-08-30T14:43:42.540Z,29.40
2022-08-30T14:46:10.835Z,29.20
2022-08-30T14:48:38.803Z,28.90
2022-08-30T14:51:15.314Z,28.80
2022-08-30T14:53:42.419Z,28.60
2022-08-30T14:56:16.095Z,28.30
2022-08-30T14:58:43.601Z,28.20
2022-08-30T15:01:12.535Z,27.90
2022-08-30T15:03:40.901Z,28.10
2022-08-30T15:06:09.295Z,28.10
2022-08-30T15:08:37.442Z,28.00
2022-08-30T15:11:11.479Z,28.00
2022-08-30T15:13:39.633Z,28.10
2022-08-30T15:16:14.661Z,28.20
2022-08-30T15:18:41.938Z,28.30
2022-08-30T15:21:09.551Z,28.10
2022-08-30T15:23:36.794Z,28.10
2022-08-30T15:26:04.145Z,27.90
2022-08-30T15:28:31.424Z,27.90
2022-08-30T15:30:58.578Z,27.60
2022-08-30T15:33:25.883Z,27.40
2022-08-30T15:35:52.706Z,27.40
2022-08-30T15:38:21.468Z,27.40
2022-08-30T15:40:50.242Z,27.20
2022-08-30T15:43:18.547Z,27.40
2022-08-30T15:45:45.631Z,27.50
2022-08-30T15:48:12.608Z,27.70
2022-08-30T15:50:39.492Z,27.70
2022-08-30T15:53:07.616Z,28.00
2022-08-30T15:55:34.661Z,27.90
2022-08-30T15:58:01.677Z,28.00
2022-08-30T16:00:29.262Z,28.00
2022-08-30T16:02:56.111Z,27.80
2022-08-30T16:05:23.795Z,27.70
2022-08-30T16:07:52.400Z,27.90
2022-08-30T16:10:19.577Z,28.00
2022-08-30T16:12:46.445Z,28.00
2022-08-30T16:15:13.833Z,27.70
2022-08-30T16:17:41.059Z,27.00
2022-08-30T16:20:09.521Z,26.80
2022-08-30T16:22:38.686Z,26.50
2022-08-30T16:25:12.506Z,26.30
2022-08-30T16:27:42.951Z,26.00
2022-08-30T16:30:11.792Z,25.80
2022-08-30T16:32:39.796Z,25.90
2022-08-30T16:35:07.863Z,26.20
2022-08-30T16:37:34.892Z,25.80
2022-08-30T16:40:01.839Z,25.90
2022-08-30T16:42:28.731Z,25.90
2022-08-30T16:44:55.642Z,25.70
2022-08-30T16:47:22.512Z,25.60
2022-08-30T16:49:49.758Z,25.60
2022-08-30T16:52:17.303Z,25.60
2022-08-30T16:54:45.113Z,25.70
2022-08-30T16:57:12.367Z,25.70
2022-08-30T16:59:39.371Z,25.60
2022-08-30T17:02:06.596Z,25.50
2022-08-30T17:04:33.382Z,25.30
2022-08-30T17:07:00.287Z,25.70
2022-08-30T17:09:27.068Z,24.90
2022-08-30T17:11:53.921Z,25.00
2022-08-30T17:14:29.057Z,24.10
2022-08-30T17:16:58.081Z,24.00
2022-08-30T17:19:26.776Z,24.10
2022-08-30T17:21:54.242Z,24.30
2022-08-30T17:24:21.256Z,24.30
2022-08-30T17:26:48.728Z,24.30
2022-08-30T17:29:15.884Z,24.30
2022-08-30T17:31:46.267Z,24.40
2022-08-30T17:34:18.335Z,24.20
2022-08-30T17:36:45.591Z,24.20
2022-08-30T17:39:13.075Z,24.10
2022-08-30T17:41:49.612Z,23.90
2022-08-30T17:44:25.636Z,23.90
2022-08-30T17:46:53.210Z,24.00
2022-08-30T17:49:20.033Z,24.00
2022-08-30T17:51:50.072Z,23.70
2022-08-30T17:54:21.058Z,23.70
2022-08-30T17:56:51.532Z,25.00
2022-08-30T17:59:18.392Z,23.20
2022-08-30T18:01:46.908Z,23.20
2022-08-30T18:04:19.762Z,23.10
2022-08-30T18:06:47.993Z,23.50
2022-08-30T18:09:15.616Z,23.00
2022-08-30T18:11:42.460Z,23.00
2022-08-30T18:14:11.494Z,23.10
2022-08-30T18:16:50.337Z,23.10
2022-08-30T18:19:21.618Z,23.20
2022-08-30T18:21:48.409Z,23.00
2022-08-30T18:24:16.918Z,22.90
2022-08-30T18:26:43.837Z,22.90
2022-08-30T18:29:11.412Z,22.70
2022-08-30T18:31:38.680Z,22.60
2022-08-30T18:34:06.993Z,22.60
2022-08-30T18:36:39.374Z,22.30
2022-08-30T18:39:06.877Z,22.40
2022-08-30T18:41:34.110Z,22.30
2022-08-30T18:46:56.061Z,21.50
2022-08-30T18:49:24.207Z,21.00
2022-08-30T18:51:51.055Z,20.60
2022-08-30T18:54:19.122Z,20.80
2022-08-30T18:56:46.290Z,20.50
2022-08-30T18:59:13.441Z,20.50
2022-08-30T19:01:40.863Z,20.10
2022-08-30T19:04:07.897Z,20.30
2022-08-30T19:06:34.985Z,20.70
2022-08-30T19:09:09.048Z,20.40
2022-08-30T19:11:52.381Z,20.50
2022-08-30T19:14:19.251Z,20.60
2022-08-30T19:16:46.080Z,20.60
2022-08-30T19:19:13.009Z,20.50
2022-08-30T19:21:40.443Z,20.30
2022-08-30T19:24:08.296Z,20.40
2022-08-30T19:26:35.735Z,20.40
2022-08-30T19:29:02.578Z,20.50
2022-08-30T19:31:29.631Z,20.40
2022-08-30T19:33:56.897Z,20.10
2022-08-30T19:36:24.381Z,20.60
2022-08-30T19:38:52.096Z,20.70
2022-08-30T19:41:22.566Z,20.10
2022-08-30T19:43:49.747Z,20.30
2022-08-30T19:46:16.772Z,20.90
2022-08-30T19:48:43.548Z,20.50
2022-08-30T19:51:12.284Z,20.50
2022-08-30T19:53:41.231Z,20.50
2022-08-30T19:56:08.242Z,20.60
2022-08-30T19:58:35.018Z,20.60
2022-08-30T20:01:12.137Z,20.30
2022-08-30T20:03:40.482Z,20.20
2022-08-30T20:06:07.979Z,20.40
2022-08-30T20:08:36.327Z,20.00
2022-08-30T20:11:04.047Z,20.30
2022-08-30T20:13:34.230Z,20.40
2022-08-30T20:16:01.544Z,20.50
2022-08-30T20:18:29.055Z,20.20
2022-08-30T20:20:56.398Z,20.00
2022-08-30T20:23:25.452Z,20.10
2022-08-30T20:24:29.258Z,21.90
2022-08-30T20:25:54.801Z,20.10
2022-08-30T20:28:22.457Z,20.20
2022-08-30T20:30:49.693Z,20.20
2022-08-30T20:33:17.728Z,20.40
2022-08-30T20:35:49.104Z,20.30
2022-08-30T20:38:21.422Z,20.40
2022-08-30T20:40:50.815Z,20.50
2022-08-30T20:43:19.405Z,20.60
2022-08-30T20:45:46.998Z,20.30
2022-08-30T20:48:14.904Z,20.30
2022-08-30T20:50:42.504Z,20.20
2022-08-30T20:53:10.295Z,20.00
2022-08-30T20:55:47.505Z,20.00
2022-08-30T20:58:14.486Z,20.00
2022-08-30T21:00:45.627Z,20.00
2022-08-30T21:03:25.874Z,19.80
2022-08-30T21:05:55.302Z,19.80
2022-08-30T21:08:22.162Z,19.70
2022-08-30T21:10:49.029Z,19.80
2022-08-30T21:13:15.834Z,20.30
2022-08-30T21:15:46.060Z,19.90
2022-08-30T21:18:14.112Z,20.30
2022-08-30T21:20:41.280Z,20.00
2022-08-30T21:23:08.215Z,21.20
2022-08-30T21:25:41.504Z,20.00
2022-08-30T21:28:08.657Z,20.00
2022-08-30T21:30:36.605Z,19.90
2022-08-30T21:33:04.952Z,19.80
2022-08-30T21:35:50.641Z,19.70
2022-08-30T21:38:17.863Z,20.10
2022-08-30T21:40:44.823Z,19.70
2022-08-30T21:43:12.074Z,19.80
2022-08-30T21:45:40.067Z,19.80
2022-08-30T21:48:07.348Z,19.90
2022-08-30T21:50:34.263Z,19.90
2022-08-30T21:53:01.745Z,20.00
2022-08-30T21:55:28.564Z,19.80
2022-08-30T21:57:55.714Z,19.80
2022-08-30T22:00:22.670Z,19.70
2022-08-30T22:02:53.032Z,19.60
2022-08-30T22:05:20.605Z,19.60
2022-08-30T22:07:47.386Z,19.60
2022-08-30T22:10:14.362Z,19.70
2022-08-30T22:12:41.461Z,19.80
2022-08-30T22:15:09.295Z,19.60
2022-08-30T22:17:36.283Z,19.70
2022-08-30T22:20:05.939Z,19.80
2022-08-30T22:22:33.173Z,19.80
2022-08-30T22:24:59.995Z,19.80
2022-08-30T22:27:26.799Z,20.00
2022-08-30T22:29:53.573Z,19.80
2022-08-30T22:32:21.526Z,20.20
2022-08-30T22:34:49.739Z,19.90
2022-08-30T22:37:16.712Z,19.90
2022-08-30T22:39:43.527Z,19.90
2022-08-30T22:42:10.376Z,20.00
2022-08-30T22:44:37.189Z,19.90
2022-08-30T22:47:04.071Z,19.80
2022-08-30T22:49:31.003Z,19.80
2022-08-30T22:51:57.764Z,19.80
2022-08-30T22:54:24.700Z,19.80
2022-08-30T22:56:51.523Z,19.90
2022-08-30T22:59:18.278Z,19.90
2022-08-30T23:01:47.024Z,19.80
2022-08-30T23:04:14.021Z,19.80
2022-08-30T23:06:41.379Z,19.80
2022-08-30T23:09:16.527Z,20.10
2022-08-30T23:11:43.312Z,19.90
2022-08-30T23:14:10.431Z,19.90
2022-08-30T23:16:37.407Z,20.30
2022-08-30T23:19:04.993Z,19.90
2022-08-30T23:21:31.775Z,19.90
2022-08-30T23:24:17.417Z,19.80
2022-08-30T23:27:04.364Z,19.80
2022-08-30T23:29:50.670Z,19.80
2022-08-30T23:32:36.485Z,19.70
2022-08-30T23:35:26.785Z,20.20
2022-08-30T23:38:16.238Z,19.50
2022-08-30T23:41:01.500Z,19.50
2022-08-30T23:43:46.801Z,19.60
2022-08-30T23:46:34.006Z,19.30
2022-08-30T23:49:19.358Z,19.20
2022-08-30T23:52:04.664Z,19.20
2022-08-30T23:54:49.872Z,19.30
2022-08-30T23:57:35.069Z,19.90
